Plata Pioneer — V7IW7 — position and weather

sailwx.info

Track history (hours):
 
Tides and Currents Weather Stations Pressure Air Temp Water Temp Dewpoint Dewpoint Depression Visibility Wind Speed Wind Dir Waves Ship Positions

Plata Pioneer

Last reported at 2017-Nov-20 00:30 UTC. Time now 2017-Nov-21 02:54 UTC.
Position N 31°55' W 118°52'.

Length 333 m; draft 16.5 m.

Type: Tanker. MMSI: 538006006.

Date/timePositionNaut miles runAvg speedWind from/ knotsBaromVisibWave heightAir tempDewpointWater temp
2017-Nov-20 00:30N 31°55' W 118°52'4 8.6
2017-Nov-20 00:00N 31°52' W 118°55'4 8.6
2017-Nov-19 23:30N 31°49' W 118°59'4 8.8
2017-Nov-19 23:00N 31°46' W 119°03'4 8.3
2017-Nov-19 22:30N 31°43' W 119°06'2 3.8
2017-Nov-19 22:00N 31°42' W 119°08'1 1.0
2017-Nov-19 21:30N 31°42' W 119°08'1 1.1
2017-Nov-19 21:00N 31°42' W 119°09'0 1.0
2017-Nov-19 20:30N 31°42' W 119°09'1 1.0
2017-Nov-19 19:54N 31°42' W 119°10'0 1.2
2017-Nov-19 19:30N 31°42' W 119°10'1 1.9
2017-Nov-19 19:00N 31°43' W 119°12'1 1.8
2017-Nov-19 18:30N 31°43' W 119°13'1 1.9
2017-Nov-19 18:00N 31°43' W 119°14'1 1.4
2017-Nov-19 17:10N 31°43' W 119°15'0 1.2
2017-Nov-19 16:54N 31°44' W 119°15'1 1.2
2017-Nov-19 16:05N 31°44' W 119°16'0 1.5
2017-Nov-19 16:00N 31°44' W 119°17'1 1.1
2017-Nov-19 15:30N 31°44' W 119°17'1 1.2
2017-Nov-19 15:00N 31°45' W 119°18'1 1.3
2017-Nov-19 14:19N 31°45' W 119°18'0 1.0
2017-Nov-19 14:00N 31°46' W 119°18'1 1.0
2017-Nov-19 13:27N 31°46' W 119°19'0 1.0
2017-Nov-19 13:00N 31°47' W 119°19'1 1.3
2017-Nov-19 12:30N 31°47' W 119°19'1 1.2
2017-Nov-19 12:00N 31°48' W 119°20'1 1.1
2017-Nov-19 11:30N 31°48' W 119°20'1 1.2
2017-Nov-19 11:00N 31°49' W 119°20'1 1.2
2017-Nov-19 10:30N 31°49' W 119°20'1 1.2
2017-Nov-19 10:00N 31°50' W 119°21'1 1.2
2017-Nov-19 09:30N 31°51' W 119°21'1 1.3
2017-Nov-19 09:00N 31°51' W 119°21'1 1.4
2017-Nov-19 08:30N 31°52' W 119°21'1 1.3
2017-Nov-19 08:00N 31°52' W 119°21'1 1.4
2017-Nov-19 07:30N 31°53' W 119°22'1 1.4
2017-Nov-19 07:00N 31°54' W 119°22'1 1.5
2017-Nov-19 06:30N 31°55' W 119°22'1 1.5
2017-Nov-19 06:00N 31°55' W 119°23'1 1.5
2017-Nov-19 05:30N 31°56' W 119°23'1 1.6
2017-Nov-19 05:00N 31°57' W 119°24'1 1.4
2017-Nov-19 04:30N 31°57' W 119°24'1 1.4
2017-Nov-19 04:00N 31°58' W 119°25'1 1.3
2017-Nov-19 03:30N 31°58' W 119°25'1 1.5
2017-Nov-19 03:00N 31°59' W 119°25'1 1.3
2017-Nov-19 02:30N 31°59' W 119°26'1 1.3
2017-Nov-19 01:42N 32°00' W 119°27'1 1.3
2017-Nov-19 00:41N 32°01' W 119°28'0 1.2
2017-Nov-19 00:26N 32°01' W 119°28'1 1.4
2017-Nov-18 23:59N 32°02' W 119°29'1 1.3
2017-Nov-18 23:30N 32°02' W 119°29'1 1.4
2017-Nov-18 23:00N 32°03' W 119°30'1 1.2
2017-Nov-18 22:30N 32°03' W 119°30'1 1.3
2017-Nov-18 22:00N 32°03' W 119°31'1 1.4
2017-Nov-18 21:30N 32°04' W 119°32'1 1.1
2017-Nov-18 20:43N 32°04' W 119°32'0 1.6
2017-Nov-18 20:30N 32°05' W 119°33'3 3.2
2017-Nov-18 19:39N 32°07' W 119°35'1 5.2
2017-Nov-18 19:28N 32°07' W 119°36'3 5.5
2017-Nov-18 18:58N 32°09' W 119°38'3 5.5
2017-Nov-18 18:30N 32°11' W 119°40'2 4.0
2017-Nov-18 17:59N 32°13' W 119°41'1 1.5
2017-Nov-18 17:30N 32°13' W 119°42'1 1.3
2017-Nov-18 17:00N 32°13' W 119°43'1 2.1
2017-Nov-18 16:30N 32°13' W 119°44'1 2.2
2017-Nov-18 16:00N 32°14' W 119°45'1 2.0
2017-Nov-18 15:30N 32°14' W 119°46'5 2.7
2017-Nov-18 13:45N 32°13' W 119°41'18 0.5
2017-Nov-17 02:31N 31°58' W 119°31'0 8.8
2017-Nov-17 02:29N 31°57' W 119°31'9 8.6
2017-Nov-17 01:26N 31°50' W 119°25'4 8.6
2017-Nov-17 00:54N 31°46' W 119°22'3 8.7
2017-Nov-17 00:30N 31°44' W 119°19'6 9.0
2017-Nov-16 23:52N 31°39' W 119°15'3 8.9
2017-Nov-16 23:30N 31°37' W 119°12'6 8.9
2017-Nov-16 22:52N 31°32' W 119°08'4 9.0
2017-Nov-16 22:29N 31°30' W 119°05'4 9.1
2017-Nov-16 22:00N 31°26' W 119°02'5 9.3
2017-Nov-16 21:30N 31°23' W 118°59'5 9.3
2017-Nov-16 21:00N 31°19' W 118°56'11 9.3
2017-Nov-16 19:49N 31°10' W 118°49'3 9.3
2017-Nov-16 19:30N 31°07' W 118°47'5 9.3
2017-Nov-16 19:00N 31°04' W 118°43'5 9.3
2017-Nov-16 18:30N 30°60' W 118°40'16 9.2
2017-Nov-16 16:44N 30°47' W 118°29'4 9.0
2017-Nov-16 16:20N 30°44' W 118°26'3 9.0
2017-Nov-16 15:59N 30°42' W 118°23'11 1.2
2017-Nov-16 06:36N 30°37' W 118°12'2 0.7
2017-Nov-16 04:04N 30°38' W 118°13'0 0.4
2017-Nov-16 03:59N 30°38' W 118°13'0 0.6
2017-Nov-16 03:30N 30°39' W 118°13'0 0.6
2017-Nov-16 02:45N 30°39' W 118°13'0 0.6
2017-Nov-16 02:30N 30°39' W 118°14'0 0.6
2017-Nov-16 01:55N 30°39' W 118°14'0 0.5
2017-Nov-16 01:25N 30°40' W 118°14'0 0.6
2017-Nov-16 00:52N 30°40' W 118°14'2 0.6
2017-Nov-15 22:00N 30°41' W 118°16'0 0.6
2017-Nov-15 21:30N 30°41' W 118°16'0 0.6
2017-Nov-15 21:00N 30°41' W 118°16'0 0.5
2017-Nov-15 20:30N 30°41' W 118°17'0 0.5
2017-Nov-15 20:00N 30°41' W 118°17'0 0.3
2017-Nov-15 19:30N 30°42' W 118°17'0 0.3
2017-Nov-15 19:00N 30°42' W 118°17'0 0.3
2017-Nov-15 18:30N 30°42' W 118°17'0 0.3
2017-Nov-15 18:00N 30°42' W 118°17'0 0.2
2017-Nov-15 17:11N 30°42' W 118°17'0 0.1
2017-Nov-15 17:00N 30°42' W 118°17'0 0.2
2017-Nov-15 16:30N 30°42' W 118°17'0 0.2
2017-Nov-15 16:00N 30°42' W 118°17'0 0.1
2017-Nov-15 15:30N 30°42' W 118°17'0 0.1
2017-Nov-15 15:00N 30°42' W 118°17'0 0.2
2017-Nov-15 14:30N 30°42' W 118°17'0 0.3
2017-Nov-15 13:36N 30°43' W 118°17'0 0.5
2017-Nov-15 13:30N 30°43' W 118°17'0 0.4
2017-Nov-15 13:00N 30°43' W 118°17'0 0.5
2017-Nov-15 12:29N 30°43' W 118°17'0 0.6
2017-Nov-15 12:00N 30°43' W 118°17'0 0.6
2017-Nov-15 11:30N 30°44' W 118°17'0 0.7
2017-Nov-15 11:00N 30°44' W 118°17'0 0.6
2017-Nov-15 10:25N 30°44' W 118°18'0 0.8
2017-Nov-15 10:00N 30°45' W 118°18'0 0.6
2017-Nov-15 09:30N 30°45' W 118°18'0 0.8
2017-Nov-15 09:00N 30°45' W 118°18'0 0.7
2017-Nov-15 08:30N 30°46' W 118°18'0 0.8
2017-Nov-15 07:59N 30°46' W 118°19'1 0.7
2017-Nov-15 07:14N 30°46' W 118°19'0 0.7
2017-Nov-15 06:50N 30°47' W 118°19'1 0.8
2017-Nov-15 06:04N 30°47' W 118°20'0 0.6
2017-Nov-15 06:00N 30°47' W 118°20'0 0.8
2017-Nov-15 05:27N 30°47' W 118°20'0 0.8
2017-Nov-15 04:55N 30°48' W 118°21'1 0.7
2017-Nov-15 03:27N 30°48' W 118°22'3 0.6
2017-Nov-14 22:50N 30°50' W 118°24'1 0.6
2017-Nov-14 21:44N 30°50' W 118°24'0 0.4
2017-Nov-14 21:08N 30°50' W 118°25'0 0.3
2017-Nov-14 20:58N 30°50' W 118°25'5 0.6
2017-Nov-14 13:14N 30°46' W 118°23'2 0.8
2017-Nov-14 10:27N 30°48' W 118°24'0 0.9
2017-Nov-14 10:00N 30°49' W 118°24'0 0.9
2017-Nov-14 09:30N 30°49' W 118°24'0 1.0
2017-Nov-14 09:00N 30°49' W 118°24'1 0.9
2017-Nov-14 07:40N 30°51' W 118°24'1 0.3
2017-Nov-14 03:31N 30°51' W 118°25'0 7.0
2017-Nov-14 03:30N 30°51' W 118°25'5 7.0
2017-Nov-14 02:51N 30°47' W 118°23'2 7.0
2017-Nov-14 02:30N 30°45' W 118°21'3 6.9
2017-Nov-14 02:00N 30°42' W 118°20'3 6.8
2017-Nov-14 01:30N 30°39' W 118°18'3 6.6
2017-Nov-14 01:00N 30°36' W 118°16'3 6.7
2017-Nov-14 00:30N 30°33' W 118°14'3 6.8
2017-Nov-14 00:00N 30°30' W 118°12'3 6.5
2017-Nov-13 23:30N 30°28' W 118°10'3 6.3
2017-Nov-13 22:58N 30°25' W 118°08'3 6.2
2017-Nov-13 22:28N 30°22' W 118°06'3 5.2
2017-Nov-13 21:54N 30°20' W 118°04'24 1.1
2017-Nov-13 00:39N 30°42' W 118°13'0 0.8
2017-Nov-13 00:29N 30°42' W 118°13'0 0.8
2017-Nov-12 23:55N 30°42' W 118°14'0 0.8
2017-Nov-12 23:30N 30°42' W 118°14'0 0.8
2017-Nov-12 23:00N 30°43' W 118°14'0 0.6
2017-Nov-12 22:22N 30°43' W 118°15'0 0.6
2017-Nov-12 21:52N 30°43' W 118°15'0 0.5
2017-Nov-12 21:09N 30°43' W 118°15'0 0.4
2017-Nov-12 21:00N 30°43' W 118°15'0 0.5
2017-Nov-12 20:20N 30°43' W 118°16'0 0.5
2017-Nov-12 19:25N 30°44' W 118°16'1 0.4
2017-Nov-12 17:20N 30°44' W 118°17'0 0.3
2017-Nov-12 16:45N 30°44' W 118°17'8 0.7
2017-Nov-12 04:32N 30°51' W 118°22'0 2.1
2017-Nov-12 04:30N 30°51' W 118°22'0 0.9
2017-Nov-12 04:00N 30°51' W 118°22'  
Track history (hours):
 
Tides and Currents Weather Stations Pressure Air Temp Water Temp Dewpoint Dewpoint Depression Visibility Wind Speed Wind Dir Waves Ship Positions

Plata Pioneer

Last reported at 2017-Nov-20 00:30 UTC. Time now 2017-Nov-21 02:54 UTC.
Position N 31°55' W 118°52'.

Length 333 m; draft 16.5 m.

Type: Tanker. MMSI: 538006006.

Date/timePositionNaut miles runAvg speedWind from/ knotsBaromVisibWave heightAir tempDewpointWater temp
2017-Nov-20 00:30N 31°55' W 118°52'4 8.6
2017-Nov-20 00:00N 31°52' W 118°55'4 8.6
2017-Nov-19 23:30N 31°49' W 118°59'4 8.8
2017-Nov-19 23:00N 31°46' W 119°03'4 8.3
2017-Nov-19 22:30N 31°43' W 119°06'2 3.8
2017-Nov-19 22:00N 31°42' W 119°08'1 1.0
2017-Nov-19 21:30N 31°42' W 119°08'1 1.1
2017-Nov-19 21:00N 31°42' W 119°09'0 1.0
2017-Nov-19 20:30N 31°42' W 119°09'1 1.0
2017-Nov-19 19:54N 31°42' W 119°10'0 1.2
2017-Nov-19 19:30N 31°42' W 119°10'1 1.9
2017-Nov-19 19:00N 31°43' W 119°12'1 1.8
2017-Nov-19 18:30N 31°43' W 119°13'1 1.9
2017-Nov-19 18:00N 31°43' W 119°14'1 1.4
2017-Nov-19 17:10N 31°43' W 119°15'0 1.2
2017-Nov-19 16:54N 31°44' W 119°15'1 1.2
2017-Nov-19 16:05N 31°44' W 119°16'0 1.5
2017-Nov-19 16:00N 31°44' W 119°17'1 1.1
2017-Nov-19 15:30N 31°44' W 119°17'1 1.2
2017-Nov-19 15:00N 31°45' W 119°18'1 1.3
2017-Nov-19 14:19N 31°45' W 119°18'0 1.0
2017-Nov-19 14:00N 31°46' W 119°18'1 1.0
2017-Nov-19 13:27N 31°46' W 119°19'0 1.0
2017-Nov-19 13:00N 31°47' W 119°19'1 1.3
2017-Nov-19 12:30N 31°47' W 119°19'1 1.2
2017-Nov-19 12:00N 31°48' W 119°20'1 1.1
2017-Nov-19 11:30N 31°48' W 119°20'1 1.2
2017-Nov-19 11:00N 31°49' W 119°20'1 1.2
2017-Nov-19 10:30N 31°49' W 119°20'1 1.2
2017-Nov-19 10:00N 31°50' W 119°21'1 1.2
2017-Nov-19 09:30N 31°51' W 119°21'1 1.3
2017-Nov-19 09:00N 31°51' W 119°21'1 1.4
2017-Nov-19 08:30N 31°52' W 119°21'1 1.3
2017-Nov-19 08:00N 31°52' W 119°21'1 1.4
2017-Nov-19 07:30N 31°53' W 119°22'1 1.4
2017-Nov-19 07:00N 31°54' W 119°22'1 1.5
2017-Nov-19 06:30N 31°55' W 119°22'1 1.5
2017-Nov-19 06:00N 31°55' W 119°23'1 1.5
2017-Nov-19 05:30N 31°56' W 119°23'1 1.6
2017-Nov-19 05:00N 31°57' W 119°24'1 1.4
2017-Nov-19 04:30N 31°57' W 119°24'1 1.4
2017-Nov-19 04:00N 31°58' W 119°25'1 1.3
2017-Nov-19 03:30N 31°58' W 119°25'1 1.5
2017-Nov-19 03:00N 31°59' W 119°25'1 1.3
2017-Nov-19 02:30N 31°59' W 119°26'1 1.3
2017-Nov-19 01:42N 32°00' W 119°27'1 1.3
2017-Nov-19 00:41N 32°01' W 119°28'0 1.2
2017-Nov-19 00:26N 32°01' W 119°28'1 1.4
2017-Nov-18 23:59N 32°02' W 119°29'1 1.3
2017-Nov-18 23:30N 32°02' W 119°29'1 1.4
2017-Nov-18 23:00N 32°03' W 119°30'1 1.2
2017-Nov-18 22:30N 32°03' W 119°30'1 1.3
2017-Nov-18 22:00N 32°03' W 119°31'1 1.4
2017-Nov-18 21:30N 32°04' W 119°32'1 1.1
2017-Nov-18 20:43N 32°04' W 119°32'0 1.6
2017-Nov-18 20:30N 32°05' W 119°33'3 3.2
2017-Nov-18 19:39N 32°07' W 119°35'1 5.2
2017-Nov-18 19:28N 32°07' W 119°36'3 5.5
2017-Nov-18 18:58N 32°09' W 119°38'3 5.5
2017-Nov-18 18:30N 32°11' W 119°40'2 4.0
2017-Nov-18 17:59N 32°13' W 119°41'1 1.5
2017-Nov-18 17:30N 32°13' W 119°42'1 1.3
2017-Nov-18 17:00N 32°13' W 119°43'1 2.1
2017-Nov-18 16:30N 32°13' W 119°44'1 2.2
2017-Nov-18 16:00N 32°14' W 119°45'1 2.0
2017-Nov-18 15:30N 32°14' W 119°46'5 2.7
2017-Nov-18 13:45N 32°13' W 119°41'18 0.5
2017-Nov-17 02:31N 31°58' W 119°31'0 8.8
2017-Nov-17 02:29N 31°57' W 119°31'9 8.6
2017-Nov-17 01:26N 31°50' W 119°25'4 8.6
2017-Nov-17 00:54N 31°46' W 119°22'3 8.7
2017-Nov-17 00:30N 31°44' W 119°19'6 9.0
2017-Nov-16 23:52N 31°39' W 119°15'3 8.9
2017-Nov-16 23:30N 31°37' W 119°12'6 8.9
2017-Nov-16 22:52N 31°32' W 119°08'4 9.0
2017-Nov-16 22:29N 31°30' W 119°05'4 9.1
2017-Nov-16 22:00N 31°26' W 119°02'5 9.3
2017-Nov-16 21:30N 31°23' W 118°59'5 9.3
2017-Nov-16 21:00N 31°19' W 118°56'11 9.3
2017-Nov-16 19:49N 31°10' W 118°49'3 9.3
2017-Nov-16 19:30N 31°07' W 118°47'5 9.3
2017-Nov-16 19:00N 31°04' W 118°43'5 9.3
2017-Nov-16 18:30N 30°60' W 118°40'16 9.2
2017-Nov-16 16:44N 30°47' W 118°29'4 9.0
2017-Nov-16 16:20N 30°44' W 118°26'3 9.0
2017-Nov-16 15:59N 30°42' W 118°23'11 1.2
2017-Nov-16 06:36N 30°37' W 118°12'2 0.7
2017-Nov-16 04:04N 30°38' W 118°13'0 0.4
2017-Nov-16 03:59N 30°38' W 118°13'0 0.6
2017-Nov-16 03:30N 30°39' W 118°13'0 0.6
2017-Nov-16 02:45N 30°39' W 118°13'0 0.6
2017-Nov-16 02:30N 30°39' W 118°14'0 0.6
2017-Nov-16 01:55N 30°39' W 118°14'0 0.5
2017-Nov-16 01:25N 30°40' W 118°14'0 0.6
2017-Nov-16 00:52N 30°40' W 118°14'2 0.6
2017-Nov-15 22:00N 30°41' W 118°16'0 0.6
2017-Nov-15 21:30N 30°41' W 118°16'0 0.6
2017-Nov-15 21:00N 30°41' W 118°16'0 0.5
2017-Nov-15 20:30N 30°41' W 118°17'0 0.5
2017-Nov-15 20:00N 30°41' W 118°17'0 0.3
2017-Nov-15 19:30N 30°42' W 118°17'0 0.3
2017-Nov-15 19:00N 30°42' W 118°17'0 0.3
2017-Nov-15 18:30N 30°42' W 118°17'0 0.3
2017-Nov-15 18:00N 30°42' W 118°17'0 0.2
2017-Nov-15 17:11N 30°42' W 118°17'0 0.1
2017-Nov-15 17:00N 30°42' W 118°17'0 0.2
2017-Nov-15 16:30N 30°42' W 118°17'0 0.2
2017-Nov-15 16:00N 30°42' W 118°17'0 0.1
2017-Nov-15 15:30N 30°42' W 118°17'0 0.1
2017-Nov-15 15:00N 30°42' W 118°17'0 0.2
2017-Nov-15 14:30N 30°42' W 118°17'0 0.3
2017-Nov-15 13:36N 30°43' W 118°17'0 0.5
2017-Nov-15 13:30N 30°43' W 118°17'0 0.4
2017-Nov-15 13:00N 30°43' W 118°17'0 0.5
2017-Nov-15 12:29N 30°43' W 118°17'0 0.6
2017-Nov-15 12:00N 30°43' W 118°17'0 0.6
2017-Nov-15 11:30N 30°44' W 118°17'0 0.7
2017-Nov-15 11:00N 30°44' W 118°17'0 0.6
2017-Nov-15 10:25N 30°44' W 118°18'0 0.8
2017-Nov-15 10:00N 30°45' W 118°18'0 0.6
2017-Nov-15 09:30N 30°45' W 118°18'0 0.8
2017-Nov-15 09:00N 30°45' W 118°18'0 0.7
2017-Nov-15 08:30N 30°46' W 118°18'0 0.8
2017-Nov-15 07:59N 30°46' W 118°19'1 0.7
2017-Nov-15 07:14N 30°46' W 118°19'0 0.7
2017-Nov-15 06:50N 30°47' W 118°19'1 0.8
2017-Nov-15 06:04N 30°47' W 118°20'0 0.6
2017-Nov-15 06:00N 30°47' W 118°20'0 0.8
2017-Nov-15 05:27N 30°47' W 118°20'0 0.8
2017-Nov-15 04:55N 30°48' W 118°21'1 0.7
2017-Nov-15 03:27N 30°48' W 118°22'3 0.6
2017-Nov-14 22:50N 30°50' W 118°24'1 0.6
2017-Nov-14 21:44N 30°50' W 118°24'0 0.4
2017-Nov-14 21:08N 30°50' W 118°25'0 0.3
2017-Nov-14 20:58N 30°50' W 118°25'5 0.6
2017-Nov-14 13:14N 30°46' W 118°23'2 0.8
2017-Nov-14 10:27N 30°48' W 118°24'0 0.9
2017-Nov-14 10:00N 30°49' W 118°24'0 0.9
2017-Nov-14 09:30N 30°49' W 118°24'0 1.0
2017-Nov-14 09:00N 30°49' W 118°24'1 0.9
2017-Nov-14 07:40N 30°51' W 118°24'1 0.3
2017-Nov-14 03:31N 30°51' W 118°25'0 7.0
2017-Nov-14 03:30N 30°51' W 118°25'5 7.0
2017-Nov-14 02:51N 30°47' W 118°23'2 7.0
2017-Nov-14 02:30N 30°45' W 118°21'3 6.9
2017-Nov-14 02:00N 30°42' W 118°20'3 6.8
2017-Nov-14 01:30N 30°39' W 118°18'3 6.6
2017-Nov-14 01:00N 30°36' W 118°16'3 6.7
2017-Nov-14 00:30N 30°33' W 118°14'3 6.8
2017-Nov-14 00:00N 30°30' W 118°12'3 6.5
2017-Nov-13 23:30N 30°28' W 118°10'3 6.3
2017-Nov-13 22:58N 30°25' W 118°08'3 6.2
2017-Nov-13 22:28N 30°22' W 118°06'3 5.2
2017-Nov-13 21:54N 30°20' W 118°04'24 1.1
2017-Nov-13 00:39N 30°42' W 118°13'0 0.8
2017-Nov-13 00:29N 30°42' W 118°13'0 0.8
2017-Nov-12 23:55N 30°42' W 118°14'0 0.8
2017-Nov-12 23:30N 30°42' W 118°14'0 0.8
2017-Nov-12 23:00N 30°43' W 118°14'0 0.6
2017-Nov-12 22:22N 30°43' W 118°15'0 0.6
2017-Nov-12 21:52N 30°43' W 118°15'0 0.5
2017-Nov-12 21:09N 30°43' W 118°15'0 0.4
2017-Nov-12 21:00N 30°43' W 118°15'0 0.5
2017-Nov-12 20:20N 30°43' W 118°16'0 0.5
2017-Nov-12 19:25N 30°44' W 118°16'1 0.4
2017-Nov-12 17:20N 30°44' W 118°17'0 0.3
2017-Nov-12 16:45N 30°44' W 118°17'8 0.7
2017-Nov-12 04:32N 30°51' W 118°22'0 2.1
2017-Nov-12 04:30N 30°51' W 118°22'0 0.9
2017-Nov-12 04:00N 30°51' W 118°22'  

Dump ship's entire track history